Ottumwa, IA (52501)

1:26 PM CDT on August 25, 2016 (GMT -0500)
East | | Change Station

Elev 833 ft 41.03 °N, 92.40 °W | Updated 39 seconds ago

Light Rain
Light Rain
69.6 °F
Feels Like 69.6 °F
N
1.0
Wind Variable Wind from WSW
Gusts 2.0 mph

Today
High -- | Low -- °F
--% Chance of Precip.
Yesterday
High -- | Low -- °F
Precip. -- in
Pressure 30.10 in
Visibility 10.0 miles
Clouds Few 5500 ft
Scattered Clouds 7000 ft
Mostly Cloudy 11000 ft
Dew Point 66 °F
Humidity 89%
Rainfall 0.30 in
Snow Depth Not available.
6:29 AM 7:52 PM
Last Quarter, 43% visible
METAR KOTM 251753Z AUTO 00000KT 10SM -RA FEW055 SCT070 BKN110 21/18 A3011 RMK AO2 SLP191 P0002 60003 T02060178 10222 20200 50009
Pressure 30.10 in
Visibility 10.0 miles
Clouds Few 5500 ft
Scattered Clouds 7000 ft
Mostly Cloudy 11000 ft
Dew Point 66 °F
Humidity 89%
Rainfall 0.30 in
Snow Depth Not available.
6:29 AM 7:52 PM
Last Quarter, 43% visible
METAR KOTM 251753Z AUTO 00000KT 10SM -RA FEW055 SCT070 BKN110 21/18 A3011 RMK AO2 SLP191 P0002 60003 T02060178 10222 20200 50009
A tropical disturbance pushing toward the Bahamas, is expected to develop into a tropical depression or storm, and will likely target Florida and the Gulf Coast this weekend into next week.

Right now, the disturbance remains a broad area of low pressure pushing through the Dominican Republic and Haiti, headed toward the southeast Bahamas. Rainfall totals over 3 inches (with locally higher amounts) are expected in HispaƱiola, particularly over elevated terrain.

10-Day Weather Forecast

Almanac

Astronomy

Aug. 25, 2016 Rise Set
Actual Time
Civil Twilight
Nautical Twilight
Astronomical Twilight
Moon
Length of Visible Light
Length of Day
Tomorrow will be .
, % of the Moon is Illuminated

Today's Extremes

State Highs State Lows

Community

WunderPhotos

Upload Photos

1,934,890 photos uploaded!

WunderBlog® & News

Nearby

Air Quality

  Air Quality AQ Index Pollutant
Not available.

Snow Depth

Station Depth Elevation

Earthquake Activity

City Distance Mag. Time & Date
Minimum magnitude displayed is 2.5.

Coastal Water Temperatures

Place Temperature

Stations

Nearby Weather Stations

Station Location Temp. Windchill Dew Point Humidity Wind Precip. Elev Updated Type
                   

Watches & Warnings

There are currently no watches in effect.